sensor_id;sensor_type;location;lat;lon;timestamp;temperature;humidity
24772;DHT22;12870;52.274;9.754;2024-02-15T00:00:41;12.70;99.90
24772;DHT22;12870;52.274;9.754;2024-02-15T00:03:08;12.70;99.90
24772;DHT22;12870;52.274;9.754;2024-02-15T00:05:38;12.80;99.90
24772;DHT22;12870;52.274;9.754;2024-02-15T00:08:04;12.80;99.90
24772;DHT22;12870;52.274;9.754;2024-02-15T00:10:31;12.80;99.90
24772;DHT22;12870;52.274;9.754;2024-02-15T00:12:57;12.70;99.90
24772;DHT22;12870;52.274;9.754;2024-02-15T00:15:23;12.80;99.90
24772;DHT22;12870;52.274;9.754;2024-02-15T00:17:48;12.70;99.90
24772;DHT22;12870;52.274;9.754;2024-02-15T00:20:14;12.80;99.90
24772;DHT22;12870;52.274;9.754;2024-02-15T00:22:40;12.80;99.90
24772;DHT22;12870;52.274;9.754;2024-02-15T00:25:08;12.70;99.90
24772;DHT22;12870;52.274;9.754;2024-02-15T00:27:35;12.70;99.90
24772;DHT22;12870;52.274;9.754;2024-02-15T00:30:02;12.60;99.90
24772;DHT22;12870;52.274;9.754;2024-02-15T00:32:27;12.70;99.90
24772;DHT22;12870;52.274;9.754;2024-02-15T00:34:53;12.70;99.90
24772;DHT22;12870;52.274;9.754;2024-02-15T00:37:19;12.70;99.90
24772;DHT22;12870;52.274;9.754;2024-02-15T00:39:44;12.70;99.90
24772;DHT22;12870;52.274;9.754;2024-02-15T00:42:10;12.70;99.90
24772;DHT22;12870;52.274;9.754;2024-02-15T00:44:36;12.70;99.90
24772;DHT22;12870;52.274;9.754;2024-02-15T00:47:02;12.70;99.90
24772;DHT22;12870;52.274;9.754;2024-02-15T00:49:28;12.80;99.90
24772;DHT22;12870;52.274;9.754;2024-02-15T00:51:53;12.80;99.90
24772;DHT22;12870;52.274;9.754;2024-02-15T00:54:19;12.80;99.90
24772;DHT22;12870;52.274;9.754;2024-02-15T00:56:44;12.70;99.90
24772;DHT22;12870;52.274;9.754;2024-02-15T00:59:10;12.80;99.90
24772;DHT22;12870;52.274;9.754;2024-02-15T01:01:35;12.70;99.90
24772;DHT22;12870;52.274;9.754;2024-02-15T01:04:03;12.70;99.90
24772;DHT22;12870;52.274;9.754;2024-02-15T01:06:29;12.70;99.90
24772;DHT22;12870;52.274;9.754;2024-02-15T01:08:54;12.80;99.90
24772;DHT22;12870;52.274;9.754;2024-02-15T01:11:20;12.80;99.90
24772;DHT22;12870;52.274;9.754;2024-02-15T01:13:46;12.80;99.90
24772;DHT22;12870;52.274;9.754;2024-02-15T01:16:12;12.80;99.90
24772;DHT22;12870;52.274;9.754;2024-02-15T01:18:37;12.90;99.90
24772;DHT22;12870;52.274;9.754;2024-02-15T01:21:03;12.90;99.90
24772;DHT22;12870;52.274;9.754;2024-02-15T01:23:29;12.80;99.90
24772;DHT22;12870;52.274;9.754;2024-02-15T01:25:54;12.90;99.90
24772;DHT22;12870;52.274;9.754;2024-02-15T01:28:20;12.90;99.90
24772;DHT22;12870;52.274;9.754;2024-02-15T01:30:46;12.80;99.90
24772;DHT22;12870;52.274;9.754;2024-02-15T01:33:12;12.80;99.90
24772;DHT22;12870;52.274;9.754;2024-02-15T01:35:38;12.80;99.90
24772;DHT22;12870;52.274;9.754;2024-02-15T01:38:07;12.70;99.90
24772;DHT22;12870;52.274;9.754;2024-02-15T01:40:32;12.70;99.90
24772;DHT22;12870;52.274;9.754;2024-02-15T01:42:58;12.70;99.90
24772;DHT22;12870;52.274;9.754;2024-02-15T01:45:24;12.80;99.90
24772;DHT22;12870;52.274;9.754;2024-02-15T01:47:51;12.70;99.90
24772;DHT22;12870;52.274;9.754;2024-02-15T01:50:17;12.70;99.90
24772;DHT22;12870;52.274;9.754;2024-02-15T01:52:45;12.80;99.90
24772;DHT22;12870;52.274;9.754;2024-02-15T01:55:13;12.80;99.90
24772;DHT22;12870;52.274;9.754;2024-02-15T01:57:40;12.80;99.90
24772;DHT22;12870;52.274;9.754;2024-02-15T02:00:09;12.80;99.90
24772;DHT22;12870;52.274;9.754;2024-02-15T02:02:39;12.80;99.90
24772;DHT22;12870;52.274;9.754;2024-02-15T02:05:07;12.80;99.90
24772;DHT22;12870;52.274;9.754;2024-02-15T02:07:33;12.80;99.90
24772;DHT22;12870;52.274;9.754;2024-02-15T02:09:59;12.80;99.90
24772;DHT22;12870;52.274;9.754;2024-02-15T02:12:25;12.80;99.90
24772;DHT22;12870;52.274;9.754;2024-02-15T02:14:53;12.80;99.90
24772;DHT22;12870;52.274;9.754;2024-02-15T02:17:19;12.70;99.90
24772;DHT22;12870;52.274;9.754;2024-02-15T02:19:45;12.70;99.90
24772;DHT22;12870;52.274;9.754;2024-02-15T02:22:11;12.80;99.90
24772;DHT22;12870;52.274;9.754;2024-02-15T02:27:32;12.80;99.90
24772;DHT22;12870;52.274;9.754;2024-02-15T02:29:57;12.80;99.90
24772;DHT22;12870;52.274;9.754;2024-02-15T02:32:25;12.80;99.90
24772;DHT22;12870;52.274;9.754;2024-02-15T02:34:51;12.80;99.90
24772;DHT22;12870;52.274;9.754;2024-02-15T02:37:16;12.90;99.90
24772;DHT22;12870;52.274;9.754;2024-02-15T02:39:43;12.80;99.90
24772;DHT22;12870;52.274;9.754;2024-02-15T02:42:08;12.80;99.90
24772;DHT22;12870;52.274;9.754;2024-02-15T02:44:34;12.80;99.90
24772;DHT22;12870;52.274;9.754;2024-02-15T02:47:00;12.80;99.90
24772;DHT22;12870;52.274;9.754;2024-02-15T02:49:26;12.70;99.90
24772;DHT22;12870;52.274;9.754;2024-02-15T02:51:52;12.80;99.90
24772;DHT22;12870;52.274;9.754;2024-02-15T02:54:17;12.80;99.90
24772;DHT22;12870;52.274;9.754;2024-02-15T02:56:43;12.80;99.90
24772;DHT22;12870;52.274;9.754;2024-02-15T02:59:10;12.80;99.90
24772;DHT22;12870;52.274;9.754;2024-02-15T03:01:36;12.90;99.90
24772;DHT22;12870;52.274;9.754;2024-02-15T03:04:02;12.90;99.90
24772;DHT22;12870;52.274;9.754;2024-02-15T03:06:27;12.90;99.90
24772;DHT22;12870;52.274;9.754;2024-02-15T03:08:53;12.90;99.90
24772;DHT22;12870;52.274;9.754;2024-02-15T03:11:21;12.90;99.90
24772;DHT22;12870;52.274;9.754;2024-02-15T03:13:48;12.90;99.90
24772;DHT22;12870;52.274;9.754;2024-02-15T03:16:14;12.90;99.90
24772;DHT22;12870;52.274;9.754;2024-02-15T03:18:39;12.90;99.90
24772;DHT22;12870;52.274;9.754;2024-02-15T03:21:06;12.90;99.90
24772;DHT22;12870;52.274;9.754;2024-02-15T03:23:36;12.90;99.90
24772;DHT22;12870;52.274;9.754;2024-02-15T03:26:02;12.90;99.90
24772;DHT22;12870;52.274;9.754;2024-02-15T03:28:29;12.90;99.90
24772;DHT22;12870;52.274;9.754;2024-02-15T03:30:55;12.90;99.90
24772;DHT22;12870;52.274;9.754;2024-02-15T03:33:21;12.80;99.90
24772;DHT22;12870;52.274;9.754;2024-02-15T03:35:51;12.80;99.90
24772;DHT22;12870;52.274;9.754;2024-02-15T03:38:17;12.80;99.90
24772;DHT22;12870;52.274;9.754;2024-02-15T03:40:42;12.80;99.90
24772;DHT22;12870;52.274;9.754;2024-02-15T03:43:08;12.80;99.90
24772;DHT22;12870;52.274;9.754;2024-02-15T03:45:34;12.80;99.90
24772;DHT22;12870;52.274;9.754;2024-02-15T03:48:00;12.80;99.90
24772;DHT22;12870;52.274;9.754;2024-02-15T03:50:25;12.70;99.90
24772;DHT22;12870;52.274;9.754;2024-02-15T03:52:51;12.80;99.90
24772;DHT22;12870;52.274;9.754;2024-02-15T03:55:17;12.70;99.90
24772;DHT22;12870;52.274;9.754;2024-02-15T03:57:43;12.80;99.90
24772;DHT22;12870;52.274;9.754;2024-02-15T04:00:12;12.80;99.90
24772;DHT22;12870;52.274;9.754;2024-02-15T04:02:40;12.80;99.90
24772;DHT22;12870;52.274;9.754;2024-02-15T04:05:07;12.80;99.90
24772;DHT22;12870;52.274;9.754;2024-02-15T04:07:34;12.90;99.90
24772;DHT22;12870;52.274;9.754;2024-02-15T04:10:00;12.90;99.90
24772;DHT22;12870;52.274;9.754;2024-02-15T04:12:26;12.80;99.90
24772;DHT22;12870;52.274;9.754;2024-02-15T04:14:52;12.80;99.90
24772;DHT22;12870;52.274;9.754;2024-02-15T04:17:18;12.80;99.90
24772;DHT22;12870;52.274;9.754;2024-02-15T04:19:47;12.80;99.90
24772;DHT22;12870;52.274;9.754;2024-02-15T04:22:13;12.80;99.90
24772;DHT22;12870;52.274;9.754;2024-02-15T04:24:41;12.80;99.90
24772;DHT22;12870;52.274;9.754;2024-02-15T04:27:07;12.80;99.90
24772;DHT22;12870;52.274;9.754;2024-02-15T04:29:40;12.80;99.90
24772;DHT22;12870;52.274;9.754;2024-02-15T04:32:10;12.80;99.90
24772;DHT22;12870;52.274;9.754;2024-02-15T04:34:36;12.80;99.90
24772;DHT22;12870;52.274;9.754;2024-02-15T04:37:02;12.80;99.90
24772;DHT22;12870;52.274;9.754;2024-02-15T04:39:32;12.90;99.90
24772;DHT22;12870;52.274;9.754;2024-02-15T04:41:58;12.90;99.90
24772;DHT22;12870;52.274;9.754;2024-02-15T04:44:23;12.90;99.90
24772;DHT22;12870;52.274;9.754;2024-02-15T04:46:53;12.90;99.90
24772;DHT22;12870;52.274;9.754;2024-02-15T04:49:19;12.90;99.90
24772;DHT22;12870;52.274;9.754;2024-02-15T04:51:45;12.90;99.90
24772;DHT22;12870;52.274;9.754;2024-02-15T04:54:12;12.90;99.90
24772;DHT22;12870;52.274;9.754;2024-02-15T04:56:41;12.90;99.90
24772;DHT22;12870;52.274;9.754;2024-02-15T04:59:09;12.90;99.90
24772;DHT22;12870;52.274;9.754;2024-02-15T05:01:37;12.90;99.90
24772;DHT22;12870;52.274;9.754;2024-02-15T05:04:03;12.90;99.90
24772;DHT22;12870;52.274;9.754;2024-02-15T05:06:32;12.90;99.90
24772;DHT22;12870;52.274;9.754;2024-02-15T05:08:58;13.00;99.90
24772;DHT22;12870;52.274;9.754;2024-02-15T05:11:25;13.00;99.90
24772;DHT22;12870;52.274;9.754;2024-02-15T05:13:51;13.00;99.90
24772;DHT22;12870;52.274;9.754;2024-02-15T05:16:17;13.00;99.90
24772;DHT22;12870;52.274;9.754;2024-02-15T05:18:43;13.00;99.90
24772;DHT22;12870;52.274;9.754;2024-02-15T05:21:08;13.00;99.90
24772;DHT22;12870;52.274;9.754;2024-02-15T05:23:37;13.00;99.90
24772;DHT22;12870;52.274;9.754;2024-02-15T05:26:05;13.00;99.90
24772;DHT22;12870;52.274;9.754;2024-02-15T05:28:30;13.00;99.90
24772;DHT22;12870;52.274;9.754;2024-02-15T05:33:35;13.00;99.90
24772;DHT22;12870;52.274;9.754;2024-02-15T05:36:01;13.00;99.90
24772;DHT22;12870;52.274;9.754;2024-02-15T05:38:27;13.00;99.90
24772;DHT22;12870;52.274;9.754;2024-02-15T05:40:53;13.00;99.90
24772;DHT22;12870;52.274;9.754;2024-02-15T05:43:19;13.00;99.90
24772;DHT22;12870;52.274;9.754;2024-02-15T05:45:45;13.00;99.90
24772;DHT22;12870;52.274;9.754;2024-02-15T05:48:11;13.00;99.90
24772;DHT22;12870;52.274;9.754;2024-02-15T05:50:37;13.00;99.90
24772;DHT22;12870;52.274;9.754;2024-02-15T05:53:03;13.00;99.90
24772;DHT22;12870;52.274;9.754;2024-02-15T05:55:29;13.00;99.90
24772;DHT22;12870;52.274;9.754;2024-02-15T05:57:56;13.00;99.90
24772;DHT22;12870;52.274;9.754;2024-02-15T06:00:22;13.00;99.90
24772;DHT22;12870;52.274;9.754;2024-02-15T06:02:47;13.10;99.90
24772;DHT22;12870;52.274;9.754;2024-02-15T06:05:14;13.10;99.90
24772;DHT22;12870;52.274;9.754;2024-02-15T06:07:42;13.10;99.90
24772;DHT22;12870;52.274;9.754;2024-02-15T06:10:08;13.10;99.90
24772;DHT22;12870;52.274;9.754;2024-02-15T06:12:33;13.10;99.90
24772;DHT22;12870;52.274;9.754;2024-02-15T06:14:59;13.10;99.90
24772;DHT22;12870;52.274;9.754;2024-02-15T06:17:24;13.20;99.90
24772;DHT22;12870;52.274;9.754;2024-02-15T06:19:50;13.10;99.90
24772;DHT22;12870;52.274;9.754;2024-02-15T06:22:16;13.20;99.90
24772;DHT22;12870;52.274;9.754;2024-02-15T06:24:41;13.20;99.90
24772;DHT22;12870;52.274;9.754;2024-02-15T06:27:07;13.20;99.90
24772;DHT22;12870;52.274;9.754;2024-02-15T06:29:32;13.20;99.90
24772;DHT22;12870;52.274;9.754;2024-02-15T06:32:16;13.20;99.90
24772;DHT22;12870;52.274;9.754;2024-02-15T06:35:00;13.20;99.90
24772;DHT22;12870;52.274;9.754;2024-02-15T06:37:44;13.20;99.90
24772;DHT22;12870;52.274;9.754;2024-02-15T06:40:28;13.20;99.90
24772;DHT22;12870;52.274;9.754;2024-02-15T06:42:56;13.20;99.90
24772;DHT22;12870;52.274;9.754;2024-02-15T06:45:21;13.20;99.90
24772;DHT22;12870;52.274;9.754;2024-02-15T06:47:47;13.10;99.90
24772;DHT22;12870;52.274;9.754;2024-02-15T06:50:13;13.20;99.90
24772;DHT22;12870;52.274;9.754;2024-02-15T06:52:40;13.20;99.90
24772;DHT22;12870;52.274;9.754;2024-02-15T06:55:07;13.20;99.90
24772;DHT22;12870;52.274;9.754;2024-02-15T06:57:34;13.20;99.90
24772;DHT22;12870;52.274;9.754;2024-02-15T07:00:06;13.20;99.90
24772;DHT22;12870;52.274;9.754;2024-02-15T07:02:33;13.30;99.90
24772;DHT22;12870;52.274;9.754;2024-02-15T07:04:59;13.20;99.90
24772;DHT22;12870;52.274;9.754;2024-02-15T07:07:24;13.30;99.90
24772;DHT22;12870;52.274;9.754;2024-02-15T07:09:51;13.30;99.90
24772;DHT22;12870;52.274;9.754;2024-02-15T07:12:16;13.30;99.90
24772;DHT22;12870;52.274;9.754;2024-02-15T07:14:42;13.30;99.90
24772;DHT22;12870;52.274;9.754;2024-02-15T07:17:07;13.40;99.90
24772;DHT22;12870;52.274;9.754;2024-02-15T07:19:33;13.30;99.90
24772;DHT22;12870;52.274;9.754;2024-02-15T07:22:02;13.30;99.90
24772;DHT22;12870;52.274;9.754;2024-02-15T07:24:27;13.30;99.90
24772;DHT22;12870;52.274;9.754;2024-02-15T07:26:53;13.30;99.90
24772;DHT22;12870;52.274;9.754;2024-02-15T07:29:21;13.40;99.90
24772;DHT22;12870;52.274;9.754;2024-02-15T07:31:49;13.40;99.90
24772;DHT22;12870;52.274;9.754;2024-02-15T07:34:14;13.30;99.90
24772;DHT22;12870;52.274;9.754;2024-02-15T07:36:41;13.20;99.90
24772;DHT22;12870;52.274;9.754;2024-02-15T07:39:07;13.30;99.90
24772;DHT22;12870;52.274;9.754;2024-02-15T07:41:38;13.30;99.90
24772;DHT22;12870;52.274;9.754;2024-02-15T07:44:03;13.20;99.90
24772;DHT22;12870;52.274;9.754;2024-02-15T07:46:29;13.20;99.90
24772;DHT22;12870;52.274;9.754;2024-02-15T07:48:55;13.30;99.90
24772;DHT22;12870;52.274;9.754;2024-02-15T07:51:21;13.40;99.90
24772;DHT22;12870;52.274;9.754;2024-02-15T07:53:47;13.40;99.90
24772;DHT22;12870;52.274;9.754;2024-02-15T07:56:14;13.30;99.90
24772;DHT22;12870;52.274;9.754;2024-02-15T07:58:42;13.40;99.90
24772;DHT22;12870;52.274;9.754;2024-02-15T08:01:08;13.40;99.90
24772;DHT22;12870;52.274;9.754;2024-02-15T08:03:36;13.40;99.90
24772;DHT22;12870;52.274;9.754;2024-02-15T08:06:02;13.40;99.90
24772;DHT22;12870;52.274;9.754;2024-02-15T08:08:34;13.50;99.90
24772;DHT22;12870;52.274;9.754;2024-02-15T08:11:02;13.50;99.90
24772;DHT22;12870;52.274;9.754;2024-02-15T08:13:28;13.50;99.90
24772;DHT22;12870;52.274;9.754;2024-02-15T08:15:55;13.60;99.90
24772;DHT22;12870;52.274;9.754;2024-02-15T08:18:21;13.60;99.90
24772;DHT22;12870;52.274;9.754;2024-02-15T08:20:47;13.70;99.90
24772;DHT22;12870;52.274;9.754;2024-02-15T08:23:12;13.70;99.90
24772;DHT22;12870;52.274;9.754;2024-02-15T08:25:38;13.80;99.90
24772;DHT22;12870;52.274;9.754;2024-02-15T08:28:06;13.90;99.90
24772;DHT22;12870;52.274;9.754;2024-02-15T08:30:33;13.90;99.90
24772;DHT22;12870;52.274;9.754;2024-02-15T08:32:58;14.00;99.90
24772;DHT22;12870;52.274;9.754;2024-02-15T08:35:24;14.10;99.90
24772;DHT22;12870;52.274;9.754;2024-02-15T08:37:49;14.10;99.90
24772;DHT22;12870;52.274;9.754;2024-02-15T08:40:17;14.10;99.90
24772;DHT22;12870;52.274;9.754;2024-02-15T08:42:44;14.10;99.90
24772;DHT22;12870;52.274;9.754;2024-02-15T08:45:11;14.10;99.90
24772;DHT22;12870;52.274;9.754;2024-02-15T08:47:42;14.10;99.90
24772;DHT22;12870;52.274;9.754;2024-02-15T08:50:09;14.20;99.90
24772;DHT22;12870;52.274;9.754;2024-02-15T08:52:36;14.10;99.90
24772;DHT22;12870;52.274;9.754;2024-02-15T08:55:07;14.10;99.90
24772;DHT22;12870;52.274;9.754;2024-02-15T08:57:36;14.20;99.90
24772;DHT22;12870;52.274;9.754;2024-02-15T09:00:04;14.20;99.90
24772;DHT22;12870;52.274;9.754;2024-02-15T09:02:48;14.30;99.90
24772;DHT22;12870;52.274;9.754;2024-02-15T09:05:14;14.40;99.90
24772;DHT22;12870;52.274;9.754;2024-02-15T09:07:46;14.50;99.90
24772;DHT22;12870;52.274;9.754;2024-02-15T09:10:16;14.70;99.90
24772;DHT22;12870;52.274;9.754;2024-02-15T09:12:48;14.70;99.90
24772;DHT22;12870;52.274;9.754;2024-02-15T09:15:14;14.80;99.90
24772;DHT22;12870;52.274;9.754;2024-02-15T09:17:40;14.80;99.90
24772;DHT22;12870;52.274;9.754;2024-02-15T09:20:13;14.70;99.90
24772;DHT22;12870;52.274;9.754;2024-02-15T09:22:51;14.70;99.90
24772;DHT22;12870;52.274;9.754;2024-02-15T09:25:18;14.60;99.90
24772;DHT22;12870;52.274;9.754;2024-02-15T09:27:44;14.50;99.90
24772;DHT22;12870;52.274;9.754;2024-02-15T09:30:11;14.50;99.90
24772;DHT22;12870;52.274;9.754;2024-02-15T09:32:40;14.50;99.90
24772;DHT22;12870;52.274;9.754;2024-02-15T09:35:07;14.50;99.90
24772;DHT22;12870;52.274;9.754;2024-02-15T09:37:38;14.60;99.90
24772;DHT22;12870;52.274;9.754;2024-02-15T09:40:11;14.60;99.90
24772;DHT22;12870;52.274;9.754;2024-02-15T09:42:37;14.70;99.90
24772;DHT22;12870;52.274;9.754;2024-02-15T09:45:05;14.80;99.90
24772;DHT22;12870;52.274;9.754;2024-02-15T09:47:37;14.90;99.90
24772;DHT22;12870;52.274;9.754;2024-02-15T09:50:07;14.80;99.90
24772;DHT22;12870;52.274;9.754;2024-02-15T09:52:34;14.80;99.90
24772;DHT22;12870;52.274;9.754;2024-02-15T09:55:03;14.90;99.90
24772;DHT22;12870;52.274;9.754;2024-02-15T09:57:29;14.90;99.90
24772;DHT22;12870;52.274;9.754;2024-02-15T09:59:58;14.80;99.90
24772;DHT22;12870;52.274;9.754;2024-02-15T10:02:26;14.70;99.90
24772;DHT22;12870;52.274;9.754;2024-02-15T10:04:52;14.60;99.90
24772;DHT22;12870;52.274;9.754;2024-02-15T10:07:18;14.60;99.90
24772;DHT22;12870;52.274;9.754;2024-02-15T10:09:44;14.50;99.90
24772;DHT22;12870;52.274;9.754;2024-02-15T10:12:09;14.40;99.90
24772;DHT22;12870;52.274;9.754;2024-02-15T10:14:35;14.40;99.90
24772;DHT22;12870;52.274;9.754;2024-02-15T10:17:08;14.30;99.90
24772;DHT22;12870;52.274;9.754;2024-02-15T10:19:35;14.20;99.90
24772;DHT22;12870;52.274;9.754;2024-02-15T10:22:06;14.10;99.90
24772;DHT22;12870;52.274;9.754;2024-02-15T10:24:32;14.10;99.90
24772;DHT22;12870;52.274;9.754;2024-02-15T10:27:02;14.20;99.90
24772;DHT22;12870;52.274;9.754;2024-02-15T10:29:35;14.20;99.90
24772;DHT22;12870;52.274;9.754;2024-02-15T10:32:03;14.30;99.90
24772;DHT22;12870;52.274;9.754;2024-02-15T10:34:29;14.30;99.90
24772;DHT22;12870;52.274;9.754;2024-02-15T10:37:12;14.30;99.90
24772;DHT22;12870;52.274;9.754;2024-02-15T10:39:38;14.30;99.90
24772;DHT22;12870;52.274;9.754;2024-02-15T10:42:06;14.30;99.90
24772;DHT22;12870;52.274;9.754;2024-02-15T10:44:32;14.30;99.90
24772;DHT22;12870;52.274;9.754;2024-02-15T10:47:01;14.30;99.90
24772;DHT22;12870;52.274;9.754;2024-02-15T10:49:31;14.30;99.90
24772;DHT22;12870;52.274;9.754;2024-02-15T10:51:58;14.30;99.90
24772;DHT22;12870;52.274;9.754;2024-02-15T10:54:41;14.30;99.90
24772;DHT22;12870;52.274;9.754;2024-02-15T10:57:10;14.30;99.90
24772;DHT22;12870;52.274;9.754;2024-02-15T11:00:03;14.40;99.90
24772;DHT22;12870;52.274;9.754;2024-02-15T11:02:45;14.40;99.90
24772;DHT22;12870;52.274;9.754;2024-02-15T11:05:15;14.50;99.90
24772;DHT22;12870;52.274;9.754;2024-02-15T11:07:46;14.50;99.90
24772;DHT22;12870;52.274;9.754;2024-02-15T11:10:12;14.50;99.90
24772;DHT22;12870;52.274;9.754;2024-02-15T11:12:42;14.40;99.90
24772;DHT22;12870;52.274;9.754;2024-02-15T11:15:11;14.50;99.90
24772;DHT22;12870;52.274;9.754;2024-02-15T11:20:06;14.50;99.90
24772;DHT22;12870;52.274;9.754;2024-02-15T11:22:37;14.50;99.90
24772;DHT22;12870;52.274;9.754;2024-02-15T11:25:03;14.50;99.90
24772;DHT22;12870;52.274;9.754;2024-02-15T11:27:37;14.50;99.90
24772;DHT22;12870;52.274;9.754;2024-02-15T11:30:05;14.50;99.90
24772;DHT22;12870;52.274;9.754;2024-02-15T11:32:41;14.40;99.90
24772;DHT22;12870;52.274;9.754;2024-02-15T11:35:18;14.40;99.90
24772;DHT22;12870;52.274;9.754;2024-02-15T11:42:39;14.60;99.90
24772;DHT22;12870;52.274;9.754;2024-02-15T11:45:08;14.60;99.90
24772;DHT22;12870;52.274;9.754;2024-02-15T11:47:37;14.60;99.90
24772;DHT22;12870;52.274;9.754;2024-02-15T11:50:08;14.50;99.90
24772;DHT22;12870;52.274;9.754;2024-02-15T11:52:40;14.60;99.90
24772;DHT22;12870;52.274;9.754;2024-02-15T11:55:08;14.50;99.90
24772;DHT22;12870;52.274;9.754;2024-02-15T11:57:41;14.40;99.90
24772;DHT22;12870;52.274;9.754;2024-02-15T12:00:26;14.50;99.90
24772;DHT22;12870;52.274;9.754;2024-02-15T12:03:10;14.50;99.90
24772;DHT22;12870;52.274;9.754;2024-02-15T12:05:57;14.50;99.90
24772;DHT22;12870;52.274;9.754;2024-02-15T12:08:45;14.40;99.90
24772;DHT22;12870;52.274;9.754;2024-02-15T12:11:29;14.40;99.90
24772;DHT22;12870;52.274;9.754;2024-02-15T12:14:17;14.40;99.90
24772;DHT22;12870;52.274;9.754;2024-02-15T12:17:06;14.30;99.90
24772;DHT22;12870;52.274;9.754;2024-02-15T12:19:52;14.40;99.90
24772;DHT22;12870;52.274;9.754;2024-02-15T12:25:06;14.30;99.90
24772;DHT22;12870;52.274;9.754;2024-02-15T12:27:41;14.40;99.90
24772;DHT22;12870;52.274;9.754;2024-02-15T12:30:13;14.40;99.90
24772;DHT22;12870;52.274;9.754;2024-02-15T12:32:39;14.50;99.90
24772;DHT22;12870;52.274;9.754;2024-02-15T12:35:12;14.50;99.90
24772;DHT22;12870;52.274;9.754;2024-02-15T12:38:03;14.50;99.90
24772;DHT22;12870;52.274;9.754;2024-02-15T12:40:36;14.50;99.90
24772;DHT22;12870;52.274;9.754;2024-02-15T12:43:04;14.50;99.90
24772;DHT22;12870;52.274;9.754;2024-02-15T12:45:41;14.50;99.90
24772;DHT22;12870;52.274;9.754;2024-02-15T12:48:08;14.60;99.90
24772;DHT22;12870;52.274;9.754;2024-02-15T12:50:34;14.70;99.90
24772;DHT22;12870;52.274;9.754;2024-02-15T12:53:00;14.70;99.90
24772;DHT22;12870;52.274;9.754;2024-02-15T12:55:32;14.80;99.90
24772;DHT22;12870;52.274;9.754;2024-02-15T12:58:01;14.80;99.90
24772;DHT22;12870;52.274;9.754;2024-02-15T13:00:30;14.80;99.90
24772;DHT22;12870;52.274;9.754;2024-02-15T13:03:02;14.80;99.90
24772;DHT22;12870;52.274;9.754;2024-02-15T13:05:29;14.70;99.90
24772;DHT22;12870;52.274;9.754;2024-02-15T13:07:56;14.70;99.90
24772;DHT22;12870;52.274;9.754;2024-02-15T13:10:23;14.70;99.90
24772;DHT22;12870;52.274;9.754;2024-02-15T13:12:52;14.80;99.90
24772;DHT22;12870;52.274;9.754;2024-02-15T13:15:19;14.80;99.90
24772;DHT22;12870;52.274;9.754;2024-02-15T13:17:50;14.90;99.90
24772;DHT22;12870;52.274;9.754;2024-02-15T13:20:19;14.90;99.90
24772;DHT22;12870;52.274;9.754;2024-02-15T13:22:46;14.90;99.90
24772;DHT22;12870;52.274;9.754;2024-02-15T13:25:15;15.00;99.90
24772;DHT22;12870;52.274;9.754;2024-02-15T13:27:46;15.10;99.90
24772;DHT22;12870;52.274;9.754;2024-02-15T13:30:13;15.30;99.90
24772;DHT22;12870;52.274;9.754;2024-02-15T13:32:39;15.30;99.90
24772;DHT22;12870;52.274;9.754;2024-02-15T13:35:09;15.40;99.90
24772;DHT22;12870;52.274;9.754;2024-02-15T13:37:47;15.40;99.90
24772;DHT22;12870;52.274;9.754;2024-02-15T13:40:14;15.30;99.90
24772;DHT22;12870;52.274;9.754;2024-02-15T13:42:44;15.30;99.90
24772;DHT22;12870;52.274;9.754;2024-02-15T13:45:16;15.20;99.90
24772;DHT22;12870;52.274;9.754;2024-02-15T13:47:44;15.30;99.90
24772;DHT22;12870;52.274;9.754;2024-02-15T13:50:11;15.40;99.90
24772;DHT22;12870;52.274;9.754;2024-02-15T13:52:40;15.50;99.90
24772;DHT22;12870;52.274;9.754;2024-02-15T13:55:12;15.50;99.90
24772;DHT22;12870;52.274;9.754;2024-02-15T13:57:42;15.60;99.90
24772;DHT22;12870;52.274;9.754;2024-02-15T14:00:12;15.70;99.90
24772;DHT22;12870;52.274;9.754;2024-02-15T14:02:40;15.70;99.90
24772;DHT22;12870;52.274;9.754;2024-02-15T14:05:06;15.70;99.90
24772;DHT22;12870;52.274;9.754;2024-02-15T14:07:34;15.70;99.90
24772;DHT22;12870;52.274;9.754;2024-02-15T14:10:02;15.60;99.90
24772;DHT22;12870;52.274;9.754;2024-02-15T14:12:28;15.50;99.90
24772;DHT22;12870;52.274;9.754;2024-02-15T14:14:54;15.50;99.90
24772;DHT22;12870;52.274;9.754;2024-02-15T14:17:19;15.40;99.90
24772;DHT22;12870;52.274;9.754;2024-02-15T14:19:45;15.30;99.90
24772;DHT22;12870;52.274;9.754;2024-02-15T14:22:12;15.30;99.90
24772;DHT22;12870;52.274;9.754;2024-02-15T14:24:41;15.20;99.90
24772;DHT22;12870;52.274;9.754;2024-02-15T14:27:09;15.20;99.90
24772;DHT22;12870;52.274;9.754;2024-02-15T14:29:35;15.30;99.90
24772;DHT22;12870;52.274;9.754;2024-02-15T14:32:03;15.30;99.90
24772;DHT22;12870;52.274;9.754;2024-02-15T14:34:48;15.30;99.90
24772;DHT22;12870;52.274;9.754;2024-02-15T14:37:15;15.10;99.90
24772;DHT22;12870;52.274;9.754;2024-02-15T14:39:42;15.10;99.90
24772;DHT22;12870;52.274;9.754;2024-02-15T14:42:08;15.10;99.90
24772;DHT22;12870;52.274;9.754;2024-02-15T14:44:33;15.00;99.90
24772;DHT22;12870;52.274;9.754;2024-02-15T14:46:59;14.90;99.90
24772;DHT22;12870;52.274;9.754;2024-02-15T14:49:25;14.90;99.90
24772;DHT22;12870;52.274;9.754;2024-02-15T14:51:51;14.90;99.90
24772;DHT22;12870;52.274;9.754;2024-02-15T14:54:16;14.90;99.90
24772;DHT22;12870;52.274;9.754;2024-02-15T14:56:44;14.80;99.90
24772;DHT22;12870;52.274;9.754;2024-02-15T14:59:10;14.90;99.90
24772;DHT22;12870;52.274;9.754;2024-02-15T15:01:36;14.80;99.90
24772;DHT22;12870;52.274;9.754;2024-02-15T15:04:02;14.80;99.90
24772;DHT22;12870;52.274;9.754;2024-02-15T15:06:31;14.80;99.90
24772;DHT22;12870;52.274;9.754;2024-02-15T15:09:15;14.90;99.90
24772;DHT22;12870;52.274;9.754;2024-02-15T15:11:59;14.80;99.90
24772;DHT22;12870;52.274;9.754;2024-02-15T15:14:43;14.80;99.90
24772;DHT22;12870;52.274;9.754;2024-02-15T15:17:10;14.80;99.90
24772;DHT22;12870;52.274;9.754;2024-02-15T15:19:38;14.90;99.90
24772;DHT22;12870;52.274;9.754;2024-02-15T15:22:04;14.80;99.90
24772;DHT22;12870;52.274;9.754;2024-02-15T15:24:31;14.90;99.90
24772;DHT22;12870;52.274;9.754;2024-02-15T15:26:58;15.00;99.90
24772;DHT22;12870;52.274;9.754;2024-02-15T15:29:24;15.00;99.90
24772;DHT22;12870;52.274;9.754;2024-02-15T15:31:50;15.00;99.90
24772;DHT22;12870;52.274;9.754;2024-02-15T15:34:17;15.00;99.90
24772;DHT22;12870;52.274;9.754;2024-02-15T15:36:45;15.10;99.90
24772;DHT22;12870;52.274;9.754;2024-02-15T15:39:12;15.00;99.90
24772;DHT22;12870;52.274;9.754;2024-02-15T15:41:37;15.00;99.90
24772;DHT22;12870;52.274;9.754;2024-02-15T15:44:03;15.00;99.90
24772;DHT22;12870;52.274;9.754;2024-02-15T15:46:30;14.90;99.90
24772;DHT22;12870;52.274;9.754;2024-02-15T15:48:56;14.90;99.90
24772;DHT22;12870;52.274;9.754;2024-02-15T15:51:21;14.80;99.90